sensor_id;sensor_type;location;lat;lon;timestamp;temperature;humidity
46562;DHT22;32289;42.688;23.330;2023-09-08T00:02:26;19.10;95.10
46562;DHT22;32289;42.688;23.330;2023-09-08T00:06:07;19.20;95.90
46562;DHT22;32289;42.688;23.330;2023-09-08T00:10:06;19.10;97.10
46562;DHT22;32289;42.688;23.330;2023-09-08T00:13:47;18.90;98.60
46562;DHT22;32289;42.688;23.330;2023-09-08T00:17:30;18.90;99.40
46562;DHT22;32289;42.688;23.330;2023-09-08T00:21:11;18.70;99.90
46562;DHT22;32289;42.688;23.330;2023-09-08T00:24:53;18.70;99.90
46562;DHT22;32289;42.688;23.330;2023-09-08T00:28:33;18.70;99.70
46562;DHT22;32289;42.688;23.330;2023-09-08T00:32:14;18.60;99.90
46562;DHT22;32289;42.688;23.330;2023-09-08T00:35:55;18.60;98.90
46562;DHT22;32289;42.688;23.330;2023-09-08T00:39:38;18.70;96.90
46562;DHT22;32289;42.688;23.330;2023-09-08T00:43:18;18.60;97.40
46562;DHT22;32289;42.688;23.330;2023-09-08T00:46:59;18.60;95.30
46562;DHT22;32289;42.688;23.330;2023-09-08T00:50:40;18.70;92.90
46562;DHT22;32289;42.688;23.330;2023-09-08T00:54:20;18.70;93.00
46562;DHT22;32289;42.688;23.330;2023-09-08T00:58:02;18.70;92.40
46562;DHT22;32289;42.688;23.330;2023-09-08T01:01:43;18.70;91.00
46562;DHT22;32289;42.688;23.330;2023-09-08T01:05:24;18.70;90.40
46562;DHT22;32289;42.688;23.330;2023-09-08T01:09:05;18.70;90.20
46562;DHT22;32289;42.688;23.330;2023-09-08T01:12:46;18.80;89.40
46562;DHT22;32289;42.688;23.330;2023-09-08T01:16:27;18.70;90.30
46562;DHT22;32289;42.688;23.330;2023-09-08T01:20:17;18.60;91.50
46562;DHT22;32289;42.688;23.330;2023-09-08T01:28:06;18.50;93.70
46562;DHT22;32289;42.688;23.330;2023-09-08T01:31:47;18.30;95.70
46562;DHT22;32289;42.688;23.330;2023-09-08T01:35:28;18.30;96.10
46562;DHT22;32289;42.688;23.330;2023-09-08T01:39:10;18.30;96.30
46562;DHT22;32289;42.688;23.330;2023-09-08T01:42:51;18.30;96.60
46562;DHT22;32289;42.688;23.330;2023-09-08T01:46:31;18.20;96.80
46562;DHT22;32289;42.688;23.330;2023-09-08T01:50:32;18.20;96.90
46562;DHT22;32289;42.688;23.330;2023-09-08T01:54:14;18.20;97.20
46562;DHT22;32289;42.688;23.330;2023-09-08T01:57:55;18.20;97.60
46562;DHT22;32289;42.688;23.330;2023-09-08T02:01:36;18.10;97.80
46562;DHT22;32289;42.688;23.330;2023-09-08T02:05:19;18.00;98.40
46562;DHT22;32289;42.688;23.330;2023-09-08T02:09:11;18.00;98.90
46562;DHT22;32289;42.688;23.330;2023-09-08T02:13:41;18.00;99.50
46562;DHT22;32289;42.688;23.330;2023-09-08T02:17:58;18.00;99.80
46562;DHT22;32289;42.688;23.330;2023-09-08T02:21:46;18.00;99.90
46562;DHT22;32289;42.688;23.330;2023-09-08T02:26:03;17.80;99.90
46562;DHT22;32289;42.688;23.330;2023-09-08T02:29:48;17.80;99.90
46562;DHT22;32289;42.688;23.330;2023-09-08T02:33:29;17.80;99.90
46562;DHT22;32289;42.688;23.330;2023-09-08T02:37:10;17.80;99.90
46562;DHT22;32289;42.688;23.330;2023-09-08T02:40:50;17.80;99.90
46562;DHT22;32289;42.688;23.330;2023-09-08T02:44:32;17.80;99.90
46562;DHT22;32289;42.688;23.330;2023-09-08T02:48:12;17.70;99.90
46562;DHT22;32289;42.688;23.330;2023-09-08T02:51:53;17.60;99.90
46562;DHT22;32289;42.688;23.330;2023-09-08T02:55:34;17.60;99.90
46562;DHT22;32289;42.688;23.330;2023-09-08T02:59:14;17.50;99.90
46562;DHT22;32289;42.688;23.330;2023-09-08T03:02:55;17.40;99.90
46562;DHT22;32289;42.688;23.330;2023-09-08T03:06:38;17.30;99.90
46562;DHT22;32289;42.688;23.330;2023-09-08T03:10:19;17.30;99.90
46562;DHT22;32289;42.688;23.330;2023-09-08T03:14:00;17.20;99.90
46562;DHT22;32289;42.688;23.330;2023-09-08T03:17:40;17.10;99.90
46562;DHT22;32289;42.688;23.330;2023-09-08T03:21:21;17.10;99.90
46562;DHT22;32289;42.688;23.330;2023-09-08T03:25:01;17.10;99.90
46562;DHT22;32289;42.688;23.330;2023-09-08T03:28:43;17.00;99.90
46562;DHT22;32289;42.688;23.330;2023-09-08T03:32:23;16.90;99.90
46562;DHT22;32289;42.688;23.330;2023-09-08T03:36:05;16.90;99.90
46562;DHT22;32289;42.688;23.330;2023-09-08T03:39:46;16.80;99.90
46562;DHT22;32289;42.688;23.330;2023-09-08T03:43:27;16.80;99.90
46562;DHT22;32289;42.688;23.330;2023-09-08T03:47:07;16.70;99.90
46562;DHT22;32289;42.688;23.330;2023-09-08T03:50:48;16.80;99.90
46562;DHT22;32289;42.688;23.330;2023-09-08T03:54:33;16.80;99.90
46562;DHT22;32289;42.688;23.330;2023-09-08T03:58:27;16.70;99.90
46562;DHT22;32289;42.688;23.330;2023-09-08T04:02:15;16.60;99.90
46562;DHT22;32289;42.688;23.330;2023-09-08T04:05:57;16.60;99.90
46562;DHT22;32289;42.688;23.330;2023-09-08T04:09:38;16.70;99.90
46562;DHT22;32289;42.688;23.330;2023-09-08T04:13:18;16.90;99.90
46562;DHT22;32289;42.688;23.330;2023-09-08T04:16:59;16.60;99.90
46562;DHT22;32289;42.688;23.330;2023-09-08T04:20:39;16.70;99.90
46562;DHT22;32289;42.688;23.330;2023-09-08T04:24:20;16.60;99.90
46562;DHT22;32289;42.688;23.330;2023-09-08T04:28:01;16.60;99.90
46562;DHT22;32289;42.688;23.330;2023-09-08T04:31:41;16.70;99.90
46562;DHT22;32289;42.688;23.330;2023-09-08T04:35:22;16.60;99.90
46562;DHT22;32289;42.688;23.330;2023-09-08T04:39:03;16.70;99.90
46562;DHT22;32289;42.688;23.330;2023-09-08T04:42:44;16.80;99.90
46562;DHT22;32289;42.688;23.330;2023-09-08T04:46:24;16.80;99.90
46562;DHT22;32289;42.688;23.330;2023-09-08T04:50:05;17.00;99.90
46562;DHT22;32289;42.688;23.330;2023-09-08T04:53:46;16.90;99.90
46562;DHT22;32289;42.688;23.330;2023-09-08T04:57:31;16.90;99.90
46562;DHT22;32289;42.688;23.330;2023-09-08T05:01:11;16.90;99.90
46562;DHT22;32289;42.688;23.330;2023-09-08T05:04:52;17.10;99.90
46562;DHT22;32289;42.688;23.330;2023-09-08T05:08:33;17.20;99.90
46562;DHT22;32289;42.688;23.330;2023-09-08T05:12:13;17.30;99.90
46562;DHT22;32289;42.688;23.330;2023-09-08T05:15:54;17.50;99.90
46562;DHT22;32289;42.688;23.330;2023-09-08T05:19:40;17.80;99.90
46562;DHT22;32289;42.688;23.330;2023-09-08T05:23:21;17.90;99.90
46562;DHT22;32289;42.688;23.330;2023-09-08T05:27:01;18.10;99.90
46562;DHT22;32289;42.688;23.330;2023-09-08T05:30:42;18.30;99.90
46562;DHT22;32289;42.688;23.330;2023-09-08T05:34:23;18.60;99.90
46562;DHT22;32289;42.688;23.330;2023-09-08T05:38:03;18.80;99.90
46562;DHT22;32289;42.688;23.330;2023-09-08T05:41:45;19.10;99.90
46562;DHT22;32289;42.688;23.330;2023-09-08T05:45:26;19.20;99.90
46562;DHT22;32289;42.688;23.330;2023-09-08T05:49:07;19.40;99.50
46562;DHT22;32289;42.688;23.330;2023-09-08T05:52:47;19.40;98.50
46562;DHT22;32289;42.688;23.330;2023-09-08T05:56:33;19.90;97.20
46562;DHT22;32289;42.688;23.330;2023-09-08T06:00:14;20.00;95.70
46562;DHT22;32289;42.688;23.330;2023-09-08T06:03:55;20.10;93.00
46562;DHT22;32289;42.688;23.330;2023-09-08T06:07:38;20.50;90.30
46562;DHT22;32289;42.688;23.330;2023-09-08T06:11:19;20.60;84.00
46562;DHT22;32289;42.688;23.330;2023-09-08T06:15:01;20.90;80.90
46562;DHT22;32289;42.688;23.330;2023-09-08T06:18:41;21.00;81.20
46562;DHT22;32289;42.688;23.330;2023-09-08T06:22:24;21.40;79.50
46562;DHT22;32289;42.688;23.330;2023-09-08T06:26:04;21.50;77.90
46562;DHT22;32289;42.688;23.330;2023-09-08T06:29:45;21.60;73.40
46562;DHT22;32289;42.688;23.330;2023-09-08T06:33:26;22.80;70.00
46562;DHT22;32289;42.688;23.330;2023-09-08T06:37:06;22.60;69.60
46562;DHT22;32289;42.688;23.330;2023-09-08T06:40:47;22.50;67.80
46562;DHT22;32289;42.688;23.330;2023-09-08T06:44:28;22.30;67.20
46562;DHT22;32289;42.688;23.330;2023-09-08T06:48:09;22.70;65.50
46562;DHT22;32289;42.688;23.330;2023-09-08T06:51:49;23.00;64.90
46562;DHT22;32289;42.688;23.330;2023-09-08T06:55:30;23.10;64.20
46562;DHT22;32289;42.688;23.330;2023-09-08T06:59:11;24.10;61.40
46562;DHT22;32289;42.688;23.330;2023-09-08T07:02:52;24.00;61.10
46562;DHT22;32289;42.688;23.330;2023-09-08T07:06:32;24.60;58.80
46562;DHT22;32289;42.688;23.330;2023-09-08T07:10:14;24.50;58.70
46562;DHT22;32289;42.688;23.330;2023-09-08T07:13:55;24.10;58.70
46562;DHT22;32289;42.688;23.330;2023-09-08T07:17:35;23.90;59.60
46562;DHT22;32289;42.688;23.330;2023-09-08T07:21:17;24.30;57.60
46562;DHT22;32289;42.688;23.330;2023-09-08T07:24:57;24.60;56.00
46562;DHT22;32289;42.688;23.330;2023-09-08T07:28:41;23.40;57.40
46562;DHT22;32289;42.688;23.330;2023-09-08T07:32:21;23.50;57.30
46562;DHT22;32289;42.688;23.330;2023-09-08T07:36:08;23.90;57.00
46562;DHT22;32289;42.688;23.330;2023-09-08T07:39:50;23.20;57.70
46562;DHT22;32289;42.688;23.330;2023-09-08T07:43:30;24.10;56.90
46562;DHT22;32289;42.688;23.330;2023-09-08T07:47:11;24.00;56.90
46562;DHT22;32289;42.688;23.330;2023-09-08T07:50:52;24.80;55.90
46562;DHT22;32289;42.688;23.330;2023-09-08T07:54:33;25.40;53.70
46562;DHT22;32289;42.688;23.330;2023-09-08T07:58:13;25.60;53.30
46562;DHT22;32289;42.688;23.330;2023-09-08T08:01:54;25.40;52.60
46562;DHT22;32289;42.688;23.330;2023-09-08T08:05:35;25.60;52.80
46562;DHT22;32289;42.688;23.330;2023-09-08T08:09:16;27.10;50.80
46562;DHT22;32289;42.688;23.330;2023-09-08T08:12:56;25.80;50.50
46562;DHT22;32289;42.688;23.330;2023-09-08T08:16:37;23.90;54.90
46562;DHT22;32289;42.688;23.330;2023-09-08T08:20:18;24.00;54.70
46562;DHT22;32289;42.688;23.330;2023-09-08T08:23:59;23.70;55.50
46562;DHT22;32289;42.688;23.330;2023-09-08T08:27:40;25.60;53.40
46562;DHT22;32289;42.688;23.330;2023-09-08T08:31:21;24.40;56.50
46562;DHT22;32289;42.688;23.330;2023-09-08T08:35:02;24.30;55.70
46562;DHT22;32289;42.688;23.330;2023-09-08T08:38:45;24.00;57.30
46562;DHT22;32289;42.688;23.330;2023-09-08T08:42:32;25.20;53.80
46562;DHT22;32289;42.688;23.330;2023-09-08T08:46:13;24.50;53.40
46562;DHT22;32289;42.688;23.330;2023-09-08T08:49:56;24.60;55.00
46562;DHT22;32289;42.688;23.330;2023-09-08T08:53:39;24.80;53.30
46562;DHT22;32289;42.688;23.330;2023-09-08T08:57:21;24.60;52.80
46562;DHT22;32289;42.688;23.330;2023-09-08T09:01:03;24.40;52.90
46562;DHT22;32289;42.688;23.330;2023-09-08T09:04:45;25.00;51.70
46562;DHT22;32289;42.688;23.330;2023-09-08T09:08:28;24.20;53.60
46562;DHT22;32289;42.688;23.330;2023-09-08T09:12:08;24.40;53.00
46562;DHT22;32289;42.688;23.330;2023-09-08T09:15:50;24.00;55.00
46562;DHT22;32289;42.688;23.330;2023-09-08T09:19:31;24.40;53.70
46562;DHT22;32289;42.688;23.330;2023-09-08T09:23:32;24.40;53.50
46562;DHT22;32289;42.688;23.330;2023-09-08T09:27:13;23.70;54.90
46562;DHT22;32289;42.688;23.330;2023-09-08T09:30:54;23.40;56.00
46562;DHT22;32289;42.688;23.330;2023-09-08T09:34:50;23.60;55.90
46562;DHT22;32289;42.688;23.330;2023-09-08T09:38:35;23.50;55.50
46562;DHT22;32289;42.688;23.330;2023-09-08T09:42:15;23.70;55.70
46562;DHT22;32289;42.688;23.330;2023-09-08T09:45:56;23.90;55.70
46562;DHT22;32289;42.688;23.330;2023-09-08T09:49:44;24.00;55.60
46562;DHT22;32289;42.688;23.330;2023-09-08T09:53:25;24.00;56.00
46562;DHT22;32289;42.688;23.330;2023-09-08T09:57:06;24.00;56.00
46562;DHT22;32289;42.688;23.330;2023-09-08T10:00:48;23.60;56.40
46562;DHT22;32289;42.688;23.330;2023-09-08T10:04:30;23.70;57.00
46562;DHT22;32289;42.688;23.330;2023-09-08T10:08:11;23.60;57.50
46562;DHT22;32289;42.688;23.330;2023-09-08T10:11:54;24.30;56.00
46562;DHT22;32289;42.688;23.330;2023-09-08T10:15:35;23.90;57.00
46562;DHT22;32289;42.688;23.330;2023-09-08T10:19:17;23.60;58.20
46562;DHT22;32289;42.688;23.330;2023-09-08T10:26:56;24.60;56.80
46562;DHT22;32289;42.688;23.330;2023-09-08T10:30:38;24.30;56.70
46562;DHT22;32289;42.688;23.330;2023-09-08T10:34:20;23.80;57.30
46562;DHT22;32289;42.688;23.330;2023-09-08T10:38:23;23.60;58.00
46562;DHT22;32289;42.688;23.330;2023-09-08T10:46:08;23.70;58.40
46562;DHT22;32289;42.688;23.330;2023-09-08T10:49:50;23.60;57.50
46562;DHT22;32289;42.688;23.330;2023-09-08T10:53:33;23.50;57.50
46562;DHT22;32289;42.688;23.330;2023-09-08T10:57:20;24.00;57.30
46562;DHT22;32289;42.688;23.330;2023-09-08T11:01:01;24.40;55.80
46562;DHT22;32289;42.688;23.330;2023-09-08T11:04:45;24.60;56.20
46562;DHT22;32289;42.688;23.330;2023-09-08T11:08:26;24.50;55.80
46562;DHT22;32289;42.688;23.330;2023-09-08T11:12:07;24.30;56.70
46562;DHT22;32289;42.688;23.330;2023-09-08T11:15:52;23.90;57.00
46562;DHT22;32289;42.688;23.330;2023-09-08T11:19:46;24.10;57.40
46562;DHT22;32289;42.688;23.330;2023-09-08T11:23:28;24.60;56.40
46562;DHT22;32289;42.688;23.330;2023-09-08T11:27:10;24.60;56.60
46562;DHT22;32289;42.688;23.330;2023-09-08T11:30:51;24.70;55.90
46562;DHT22;32289;42.688;23.330;2023-09-08T11:34:32;24.20;56.90
46562;DHT22;32289;42.688;23.330;2023-09-08T11:38:13;23.80;57.50
46562;DHT22;32289;42.688;23.330;2023-09-08T11:41:54;23.90;57.70
46562;DHT22;32289;42.688;23.330;2023-09-08T11:45:35;24.20;56.30
46562;DHT22;32289;42.688;23.330;2023-09-08T11:49:19;24.20;56.80
46562;DHT22;32289;42.688;23.330;2023-09-08T11:53:00;24.80;56.00
46562;DHT22;32289;42.688;23.330;2023-09-08T11:56:43;25.20;55.40
46562;DHT22;32289;42.688;23.330;2023-09-08T12:00:24;25.40;55.10
46562;DHT22;32289;42.688;23.330;2023-09-08T12:04:06;25.70;54.10
46562;DHT22;32289;42.688;23.330;2023-09-08T12:07:47;25.20;54.40
46562;DHT22;32289;42.688;23.330;2023-09-08T12:11:34;25.40;54.30
46562;DHT22;32289;42.688;23.330;2023-09-08T12:15:38;25.70;53.80
46562;DHT22;32289;42.688;23.330;2023-09-08T12:19:31;25.30;53.10
46562;DHT22;32289;42.688;23.330;2023-09-08T12:23:20;25.40;53.30
46562;DHT22;32289;42.688;23.330;2023-09-08T12:27:02;25.50;53.10
46562;DHT22;32289;42.688;23.330;2023-09-08T12:30:43;25.70;53.50
46562;DHT22;32289;42.688;23.330;2023-09-08T12:34:24;26.10;52.10
46562;DHT22;32289;42.688;23.330;2023-09-08T12:38:06;26.00;52.70
46562;DHT22;32289;42.688;23.330;2023-09-08T12:41:47;26.40;51.80
46562;DHT22;32289;42.688;23.330;2023-09-08T12:45:30;26.20;52.10
46562;DHT22;32289;42.688;23.330;2023-09-08T12:49:11;25.90;53.10
46562;DHT22;32289;42.688;23.330;2023-09-08T12:52:52;25.30;54.00
46562;DHT22;32289;42.688;23.330;2023-09-08T12:56:33;25.40;54.00
46562;DHT22;32289;42.688;23.330;2023-09-08T13:00:14;25.50;54.00
46562;DHT22;32289;42.688;23.330;2023-09-08T13:03:55;25.50;53.60
46562;DHT22;32289;42.688;23.330;2023-09-08T13:07:35;25.50;53.80
46562;DHT22;32289;42.688;23.330;2023-09-08T13:11:16;25.30;53.20
46562;DHT22;32289;42.688;23.330;2023-09-08T13:14:57;25.30;53.30
46562;DHT22;32289;42.688;23.330;2023-09-08T13:18:37;25.30;53.10
46562;DHT22;32289;42.688;23.330;2023-09-08T13:22:19;24.70;52.30
46562;DHT22;32289;42.688;23.330;2023-09-08T13:25:59;24.90;52.80
46562;DHT22;32289;42.688;23.330;2023-09-08T13:29:40;24.70;52.90
46562;DHT22;32289;42.688;23.330;2023-09-08T13:33:21;24.70;51.60
46562;DHT22;32289;42.688;23.330;2023-09-08T13:37:02;24.60;52.50
46562;DHT22;32289;42.688;23.330;2023-09-08T13:40:43;24.80;52.30
46562;DHT22;32289;42.688;23.330;2023-09-08T13:44:24;24.80;53.00
46562;DHT22;32289;42.688;23.330;2023-09-08T13:48:05;25.00;52.20
46562;DHT22;32289;42.688;23.330;2023-09-08T13:51:46;25.10;51.10
46562;DHT22;32289;42.688;23.330;2023-09-08T13:55:27;25.10;52.40
46562;DHT22;32289;42.688;23.330;2023-09-08T13:59:08;25.30;52.20
46562;DHT22;32289;42.688;23.330;2023-09-08T14:02:49;24.80;52.30
46562;DHT22;32289;42.688;23.330;2023-09-08T14:06:30;25.10;52.20
46562;DHT22;32289;42.688;23.330;2023-09-08T14:10:10;25.10;52.10
46562;DHT22;32289;42.688;23.330;2023-09-08T14:13:51;25.00;52.40
46562;DHT22;32289;42.688;23.330;2023-09-08T14:17:32;24.90;53.20
46562;DHT22;32289;42.688;23.330;2023-09-08T14:21:12;25.00;53.40
46562;DHT22;32289;42.688;23.330;2023-09-08T14:24:53;24.80;53.20
46562;DHT22;32289;42.688;23.330;2023-09-08T14:28:34;25.10;53.10
46562;DHT22;32289;42.688;23.330;2023-09-08T14:32:15;25.20;53.10
46562;DHT22;32289;42.688;23.330;2023-09-08T14:35:56;25.20;53.20
46562;DHT22;32289;42.688;23.330;2023-09-08T14:39:36;25.00;53.30
46562;DHT22;32289;42.688;23.330;2023-09-08T14:43:17;24.90;53.70
46562;DHT22;32289;42.688;23.330;2023-09-08T14:46:58;24.70;53.20
46562;DHT22;32289;42.688;23.330;2023-09-08T14:50:38;24.80;53.30
46562;DHT22;32289;42.688;23.330;2023-09-08T14:54:19;24.70;53.20
46562;DHT22;32289;42.688;23.330;2023-09-08T14:58:00;24.60;53.10
46562;DHT22;32289;42.688;23.330;2023-09-08T15:01:41;24.40;53.70
46562;DHT22;32289;42.688;23.330;2023-09-08T15:05:24;24.40;54.20
46562;DHT22;32289;42.688;23.330;2023-09-08T15:09:04;24.30;54.40
46562;DHT22;32289;42.688;23.330;2023-09-08T15:12:45;24.20;54.60
46562;DHT22;32289;42.688;23.330;2023-09-08T15:16:26;24.20;54.80
46562;DHT22;32289;42.688;23.330;2023-09-08T15:20:07;24.10;54.20
46562;DHT22;32289;42.688;23.330;2023-09-08T15:23:49;24.10;54.50
46562;DHT22;32289;42.688;23.330;2023-09-08T15:27:30;24.10;54.50
46562;DHT22;32289;42.688;23.330;2023-09-08T15:31:11;24.00;54.40
46562;DHT22;32289;42.688;23.330;2023-09-08T15:34:55;24.00;54.40
46562;DHT22;32289;42.688;23.330;2023-09-08T15:38:36;23.90;54.70
46562;DHT22;32289;42.688;23.330;2023-09-08T15:42:16;23.90;54.50
46562;DHT22;32289;42.688;23.330;2023-09-08T15:45:57;23.90;54.80
46562;DHT22;32289;42.688;23.330;2023-09-08T15:49:38;23.90;55.10
46562;DHT22;32289;42.688;23.330;2023-09-08T15:53:19;23.80;55.40
46562;DHT22;32289;42.688;23.330;2023-09-08T15:56:59;23.70;56.00
46562;DHT22;32289;42.688;23.330;2023-09-08T16:00:40;23.70;55.90
46562;DHT22;32289;42.688;23.330;2023-09-08T16:04:21;23.60;56.30
46562;DHT22;32289;42.688;23.330;2023-09-08T16:08:02;23.50;56.70
46562;DHT22;32289;42.688;23.330;2023-09-08T16:11:42;23.60;56.90
46562;DHT22;32289;42.688;23.330;2023-09-08T16:15:23;23.60;57.00
46562;DHT22;32289;42.688;23.330;2023-09-08T16:19:04;23.40;57.60
46562;DHT22;32289;42.688;23.330;2023-09-08T16:22:46;23.30;58.10
46562;DHT22;32289;42.688;23.330;2023-09-08T16:26:26;23.30;58.40
46562;DHT22;32289;42.688;23.330;2023-09-08T16:30:07;23.20;58.80
46562;DHT22;32289;42.688;23.330;2023-09-08T16:33:50;23.10;58.60
46562;DHT22;32289;42.688;23.330;2023-09-08T16:37:31;23.00;59.10
46562;DHT22;32289;42.688;23.330;2023-09-08T16:41:12;22.90;59.20
46562;DHT22;32289;42.688;23.330;2023-09-08T16:44:52;22.70;59.40
46562;DHT22;32289;42.688;23.330;2023-09-08T16:48:34;22.80;59.40
46562;DHT22;32289;42.688;23.330;2023-09-08T16:52:14;22.60;59.60
46562;DHT22;32289;42.688;23.330;2023-09-08T16:55:55;22.60;60.00
46562;DHT22;32289;42.688;23.330;2023-09-08T16:59:36;22.40;60.70
46562;DHT22;32289;42.688;23.330;2023-09-08T17:03:16;22.40;60.90
46562;DHT22;32289;42.688;23.330;2023-09-08T17:06:57;22.20;61.40
46562;DHT22;32289;42.688;23.330;2023-09-08T17:10:38;22.20;61.50
46562;DHT22;32289;42.688;23.330;2023-09-08T17:14:19;22.10;61.90
46562;DHT22;32289;42.688;23.330;2023-09-08T17:17:59;22.00;62.30
46562;DHT22;32289;42.688;23.330;2023-09-08T17:21:40;21.90;63.20
46562;DHT22;32289;42.688;23.330;2023-09-08T17:25:20;21.80;63.60
46562;DHT22;32289;42.688;23.330;2023-09-08T17:29:01;21.70;63.60
46562;DHT22;32289;42.688;23.330;2023-09-08T17:32:42;21.60;63.90
46562;DHT22;32289;42.688;23.330;2023-09-08T17:36:22;21.60;64.40
46562;DHT22;32289;42.688;23.330;2023-09-08T17:40:03;21.50;65.10
46562;DHT22;32289;42.688;23.330;2023-09-08T17:43:47;21.40;65.50
46562;DHT22;32289;42.688;23.330;2023-09-08T17:47:27;21.30;66.10
46562;DHT22;32289;42.688;23.330;2023-09-08T17:51:08;21.20;66.40
46562;DHT22;32289;42.688;23.330;2023-09-08T17:54:49;21.20;66.80
46562;DHT22;32289;42.688;23.330;2023-09-08T17:58:29;21.10;67.30
46562;DHT22;32289;42.688;23.330;2023-09-08T18:02:10;21.00;67.70
46562;DHT22;32289;42.688;23.330;2023-09-08T18:05:51;20.90;68.00
46562;DHT22;32289;42.688;23.330;2023-09-08T18:09:31;21.00;68.70
46562;DHT22;32289;42.688;23.330;2023-09-08T18:13:12;20.80;68.80
46562;DHT22;32289;42.688;23.330;2023-09-08T18:16:54;20.70;69.50
46562;DHT22;32289;42.688;23.330;2023-09-08T18:20:34;20.70;69.90
46562;DHT22;32289;42.688;23.330;2023-09-08T18:24:15;20.70;70.00
46562;DHT22;32289;42.688;23.330;2023-09-08T18:27:56;20.60;70.20
46562;DHT22;32289;42.688;23.330;2023-09-08T18:31:36;20.70;70.40
46562;DHT22;32289;42.688;23.330;2023-09-08T18:35:17;20.60;71.30
46562;DHT22;32289;42.688;23.330;2023-09-08T18:38:58;20.50;71.60
46562;DHT22;32289;42.688;23.330;2023-09-08T18:42:39;20.50;72.20
46562;DHT22;32289;42.688;23.330;2023-09-08T18:46:22;20.50;72.00
46562;DHT22;32289;42.688;23.330;2023-09-08T18:50:03;20.50;72.40
46562;DHT22;32289;42.688;23.330;2023-09-08T18:53:45;20.40;73.40
46562;DHT22;32289;42.688;23.330;2023-09-08T18:57:27;20.10;74.30
46562;DHT22;32289;42.688;23.330;2023-09-08T19:01:09;20.00;75.00
46562;DHT22;32289;42.688;23.330;2023-09-08T19:04:50;19.90;75.60
46562;DHT22;32289;42.688;23.330;2023-09-08T19:08:31;19.90;76.10
46562;DHT22;32289;42.688;23.330;2023-09-08T19:12:12;19.70;76.90
46562;DHT22;32289;42.688;23.330;2023-09-08T19:15:53;19.80;77.20
46562;DHT22;32289;42.688;23.330;2023-09-08T19:19:33;19.60;78.40
46562;DHT22;32289;42.688;23.330;2023-09-08T19:23:14;19.60;78.10
46562;DHT22;32289;42.688;23.330;2023-09-08T19:26:55;19.50;78.20
46562;DHT22;32289;42.688;23.330;2023-09-08T19:30:35;19.70;77.60
46562;DHT22;32289;42.688;23.330;2023-09-08T19:34:16;19.60;78.00
46562;DHT22;32289;42.688;23.330;2023-09-08T19:37:56;19.70;78.20
46562;DHT22;32289;42.688;23.330;2023-09-08T19:41:38;19.70;78.30
46562;DHT22;32289;42.688;23.330;2023-09-08T19:45:18;19.70;78.30
46562;DHT22;32289;42.688;23.330;2023-09-08T19:48:59;19.90;77.50
46562;DHT22;32289;42.688;23.330;2023-09-08T19:52:40;19.80;77.60
46562;DHT22;32289;42.688;23.330;2023-09-08T19:56:20;19.80;78.40
46562;DHT22;32289;42.688;23.330;2023-09-08T20:00:02;19.70;78.90
46562;DHT22;32289;42.688;23.330;2023-09-08T20:03:43;19.60;79.20
46562;DHT22;32289;42.688;23.330;2023-09-08T20:07:24;19.60;80.00
46562;DHT22;32289;42.688;23.330;2023-09-08T20:11:08;19.60;79.40
46562;DHT22;32289;42.688;23.330;2023-09-08T20:14:48;19.70;79.20
46562;DHT22;32289;42.688;23.330;2023-09-08T20:18:32;19.70;79.20
46562;DHT22;32289;42.688;23.330;2023-09-08T20:22:30;19.80;78.70
46562;DHT22;32289;42.688;23.330;2023-09-08T20:26:18;19.80;78.90
46562;DHT22;32289;42.688;23.330;2023-09-08T20:30:17;19.70;79.60
46562;DHT22;32289;42.688;23.330;2023-09-08T20:34:05;19.70;79.90
46562;DHT22;32289;42.688;23.330;2023-09-08T20:37:46;19.50;80.80
46562;DHT22;32289;42.688;23.330;2023-09-08T20:46:30;19.30;81.90
46562;DHT22;32289;42.688;23.330;2023-09-08T20:54:50;19.30;82.20
46562;DHT22;32289;42.688;23.330;2023-09-08T20:58:53;19.20;82.60
46562;DHT22;32289;42.688;23.330;2023-09-08T21:03:15;19.20;83.00
46562;DHT22;32289;42.688;23.330;2023-09-08T21:07:36;19.20;83.30
46562;DHT22;32289;42.688;23.330;2023-09-08T21:12:14;19.10;83.60
46562;DHT22;32289;42.688;23.330;2023-09-08T21:16:53;19.10;84.20
46562;DHT22;32289;42.688;23.330;2023-09-08T21:21:04;19.10;84.60
46562;DHT22;32289;42.688;23.330;2023-09-08T21:25:15;19.00;85.20
46562;DHT22;32289;42.688;23.330;2023-09-08T21:29:03;18.90;86.00
46562;DHT22;32289;42.688;23.330;2023-09-08T21:33:08;18.90;86.70
46562;DHT22;32289;42.688;23.330;2023-09-08T21:37:30;18.90;86.70
46562;DHT22;32289;42.688;23.330;2023-09-08T21:41:53;18.90;87.30
46562;DHT22;32289;42.688;23.330;2023-09-08T21:55:44;18.80;90.00
46562;DHT22;32289;42.688;23.330;2023-09-08T21:59:57;18.70;90.50
46562;DHT22;32289;42.688;23.330;2023-09-08T22:04:06;18.60;91.10
46562;DHT22;32289;42.688;23.330;2023-09-08T22:08:28;18.50;91.70
46562;DHT22;32289;42.688;23.330;2023-09-08T22:12:14;18.50;92.10
46562;DHT22;32289;42.688;23.330;2023-09-08T22:21:01;18.40;93.20
46562;DHT22;32289;42.688;23.330;2023-09-08T22:24:42;18.30;93.90
46562;DHT22;32289;42.688;23.330;2023-09-08T22:28:27;18.30;94.40
46562;DHT22;32289;42.688;23.330;2023-09-08T22:32:29;18.20;95.00
46562;DHT22;32289;42.688;23.330;2023-09-08T22:36:12;18.20;95.60
46562;DHT22;32289;42.688;23.330;2023-09-08T22:39:54;18.20;96.00
46562;DHT22;32289;42.688;23.330;2023-09-08T22:43:39;18.10;96.50
46562;DHT22;32289;42.688;23.330;2023-09-08T22:47:20;18.10;97.00
46562;DHT22;32289;42.688;23.330;2023-09-08T22:51:02;18.00;97.70
46562;DHT22;32289;42.688;23.330;2023-09-08T22:54:46;18.00;98.30
46562;DHT22;32289;42.688;23.330;2023-09-08T22:58:55;17.90;99.10
46562;DHT22;32289;42.688;23.330;2023-09-08T23:03:01;17.80;99.70
46562;DHT22;32289;42.688;23.330;2023-09-08T23:07:15;17.70;99.90
46562;DHT22;32289;42.688;23.330;2023-09-08T23:11:54;17.70;99.90
46562;DHT22;32289;42.688;23.330;2023-09-08T23:15:43;17.60;99.90
46562;DHT22;32289;42.688;23.330;2023-09-08T23:19:31;17.60;99.90
46562;DHT22;32289;42.688;23.330;2023-09-08T23:23:12;17.50;99.90
46562;DHT22;32289;42.688;23.330;2023-09-08T23:26:53;17.50;99.90
46562;DHT22;32289;42.688;23.330;2023-09-08T23:30:34;17.40;99.90
46562;DHT22;32289;42.688;23.330;2023-09-08T23:34:15;17.40;99.90
46562;DHT22;32289;42.688;23.330;2023-09-08T23:37:56;17.30;99.90
46562;DHT22;32289;42.688;23.330;2023-09-08T23:41:37;17.30;99.90
46562;DHT22;32289;42.688;23.330;2023-09-08T23:45:18;17.20;99.90
46562;DHT22;32289;42.688;23.330;2023-09-08T23:48:59;17.20;99.90